Boyd Deep Canyon Reserve, California Weather observations

Data are for 10 minute period ending at time listed.
 Day   Time   Solar   Ave.   Ave.  Ave.  Vector  Max.   Baro.   Total    
  of    of     Rad.   Air    Rel.  Wind   Wind   Wind  Press.  Precip.   
Year   Day            Temp.  Hum.  Speed  Dir.   Gust                    
2018   (PST)  Kw/m2    F      %     mph   deg.    mph    mb.     in.     
-------------------------------------------------------------------------
 201   16:50   0.35  102.2    20    9.2    17    12.9   974.3    0.00 
 201   17:00   0.33  101.5    21    7.9    16    12.2   974.3    0.00 
 201   17:10   0.29  101.0    22    6.1    68    11.2   974.4    0.00 
 201   17:20   0.26  100.8    23    5.1    80     8.8   974.5    0.00 
 201   17:30   0.22  101.0    23    3.4    68     7.5   974.5    0.00 
 201   17:40   0.19  100.7    24    4.4    66     8.8   974.5    0.00 
 201   17:50   0.07   99.7    26    6.6    65    10.7   974.6    0.00 
 201   18:00   0.03   98.6    27    5.3    73     9.0   974.6    0.00 
 201   18:10   0.03   98.4    27    5.2    62     8.1   974.7    0.00 
 201   18:20   0.03   98.0    27    6.8   353    12.0   974.9    0.00 
 201   18:30   0.02   97.6    27    8.4   352    13.9   975.0    0.00 
 201   18:40   0.02   96.7    28    7.9   358    12.7   975.2    0.00 
 201   18:50   0.01   96.3    30    5.8     9     8.5   975.4    0.00 
 201   19:00   0.01   95.7    30    5.9    11     8.4   975.5    0.00 
 201   19:10   0.00   95.3    30    5.8     9     8.8   975.6    0.00 
 201   19:20   0.00   95.1    30    3.2   353     5.8   975.8    0.00 
 201   19:30   0.00   94.9    31    1.6   358     3.6   975.8    0.00 
 201   19:40   0.00   94.5    31    0.7    19     2.7   975.8    0.00 
 201   19:50   0.00   94.3    31    4.0     3     5.8   975.8    0.00 
 201   20:00   0.00   94.0    31    2.4   359     4.1   975.9    0.00 
 201   20:10   0.00   93.8    31    3.1   349     5.1   976.0    0.00 
 201   20:20   0.00   93.4    32    4.4   349     6.6   976.1    0.00 
 201   20:30   0.00   93.3    32    2.5   354     4.7   976.3    0.00 
 201   20:40   0.00   93.0    32    1.6    13     3.4   976.4    0.00 
 201   20:50   0.00   92.7    32    1.3     2     5.6   976.6    0.00 
 201   21:00   0.00   92.5    32    2.0   342     3.7   976.7    0.00 
 201   21:10   0.00   92.2    32    4.0   345     6.7   976.8    0.00 
 201   21:20   0.00   91.8    32    5.8   344     8.2   976.8    0.00 
 201   21:30   0.00   91.1    33    4.2   347     8.0   976.8    0.00 
 201   21:40   0.00   90.7    33    2.7    26     6.5   976.8    0.00 
 201   21:50   0.00   90.4    33    4.2     5     6.6   976.9    0.00 
 201   22:00   0.00   89.8    34    2.1    22     6.1   976.9    0.00 
 201   22:10   0.00   89.5    35    3.8   358     5.7   977.1    0.00 
 201   22:20   0.00   88.7    36    4.0     7     6.9   977.1    0.00 
 201   22:30   0.00   88.3    36    1.8    33     4.7   977.1    0.00 
 201   22:40   0.00   88.1    36    1.2    54     3.9   977.1    0.00 
 201   22:50   0.00   87.9    36    0.8    76     2.3   977.0    0.00 
 201   23:00   0.00   87.5    37    2.7    31     3.9   976.9    0.00 
 201   23:10   0.00   87.4    37    2.7    36     3.9   976.9    0.00 
 201   23:20   0.00   86.9    38    0.7    46     1.9   976.9    0.00 
 201   23:30   0.00   86.7    38    1.6    12     3.0   976.9    0.00 
 201   23:40   0.00   86.4    38    2.6    31     4.3   976.9    0.00 
 201   23:50   0.00   86.0    39    1.5    92     2.2   976.9    0.00 
 202    0:00   0.00   85.9    39    1.3    41     2.4   976.9    0.00 
 202    0:10   0.00   85.7    39    1.4    11     2.6   976.9    0.00 
 202    0:20   0.00   85.4    40    0.6    34     1.1   976.8    0.00 
 202    0:30   0.00   85.3    40    0.0    38     0.6   976.8    0.00 
 202    0:40   0.00   85.3    40    0.2    38     0.7   976.8    0.00 
 202    0:50   0.00   85.2    40    0.2    38     1.0   976.7    0.00 
 202    1:00   0.00   85.2    40    1.2    24     1.5   976.7    0.00 
 202    1:10   0.00   85.0    40    0.2    38     1.1   976.7    0.00 
 202    1:20   0.00   85.0    40    1.3    39     3.7   976.7    0.00 
 202    1:30   0.00   84.4    41    1.7    12     2.8   976.7    0.00 
 202    1:40   0.00   83.9    42    1.4    64     2.5   976.8    0.00 
 202    1:50   0.00   83.8    42    2.2    49     3.3   976.9    0.00 
 202    2:00   0.00   83.6    42    3.6     8     6.4   977.1    0.00 
 202    2:10   0.00   83.1    43    1.7    51     2.9   977.1    0.00 
 202    2:20   0.00   82.8    43    2.4    71     3.4   977.0    0.00 
 202    2:30   0.00   82.5    44    1.6    52     2.5   977.0    0.00 
 202    2:40   0.00   82.4    44    0.8    32     1.6   977.0    0.00 
 202    2:50   0.00   82.3    43    0.1    66     0.7   977.1    0.00 
 202    3:00   0.00   82.2    44    0.0    50     0.4   977.1    0.00 
 202    3:10   0.00   81.9    44    0.0     0     0.0   977.0    0.00 
 202    3:20   0.00   81.8    44    0.9    67     1.8   976.9    0.00 
 202    3:30   0.00   82.1    44    0.6    35     1.6   977.0    0.00 
 202    3:40   0.00   82.1    44    0.2   172     2.4   977.1    0.00 
 202    3:50   0.00   82.5    43    3.7   195     4.8   977.0    0.00 
 202    4:00   0.00   83.3    42    4.9   201     6.4   976.9    0.00 
 202    4:10   0.00   83.5    41    2.7   115     5.0   976.9    0.00 
 202    4:20   0.00   83.0    42    1.2    27     2.7   976.9    0.00 
 202    4:30   0.00   82.7    43    2.5   351     3.9   976.8    0.00 
 202    4:40   0.00   82.4    44    1.8    58     3.8   976.9    0.00 
 202    4:50   0.00   81.1    46    2.5    70     3.9   977.1    0.00 
 202    5:00   0.01   80.7    46    2.0    56     3.7   977.2    0.00 
 202    5:10   0.01   80.5    46    1.7    67     3.2   977.3    0.00 
 202    5:20   0.02   80.7    46    0.9    94     2.6   977.4    0.00 
 202    5:30   0.03   80.9    45    0.4    88     1.5   977.4    0.00 
 202    5:40   0.06   81.3    44    1.3    22     2.1   977.6    0.00 
 202    5:50   0.09   82.4    42    0.6    39     2.0   977.8    0.00 
 202    6:00   0.13   83.8    40    0.7   151     1.4   977.9    0.00 
 202    6:10   0.13   85.0    38    1.1    59     2.8   978.0    0.00 
 202    6:20   0.13   83.9    40    2.0    34     3.0   978.1    0.00 
 202    6:30   0.15   84.2    40    0.7    16     2.1   978.2    0.00 
 202    6:40   0.20   86.6    36    0.1    25     0.7   978.3    0.00 
 202    6:50   0.19   86.5    37    1.6    50     2.8   978.5    0.00 
 202    7:00   0.27   86.3    37    1.1    73     2.4   978.6    0.00 
 202    7:10   0.38   88.9    34    1.1    44     3.0   978.7    0.00 
 202    7:20   0.40   89.5    33    1.7    17     3.7   979.0    0.00 
 202    7:30   0.37   90.2    33    1.2     8     3.0   979.4    0.00 
 202    7:40   0.29   89.5    33    8.3    61    13.4   979.7    0.00 
 202    7:50   0.32   88.6    34   10.8    62    18.0   979.9    0.00 
 202    8:00   0.31   86.8    37   11.9    61    18.6   980.2    0.00 
 202    8:10   0.45   86.9    36   13.3    60    23.9   980.6    0.00 
 202    8:20   0.53   86.6    38   14.5    60    27.2   980.9    0.00 
 202    8:30   0.57   87.3    40   15.9    56    24.3   981.0    0.00 
 202    8:40   0.62   88.0    40   15.5    54    26.4   981.1    0.00 
 202    8:50   0.59   89.6    37    9.1    66    20.2   981.0    0.00 
 202    9:00   0.72   90.5    34   11.7    56    18.4   980.9    0.00 
 202    9:10   0.76   91.9    33    9.5    44    17.4   980.9    0.00 
 202    9:20   0.68   91.7    35   12.0    45    24.5   981.0    0.00 
 202    9:30   0.62   91.0    39   13.3    43    22.8   981.1    0.00 
 202    9:40   0.57   90.6    39   13.9    37    23.1   981.1    0.00 
 202    9:50   0.53   91.1    37   11.6    47    18.6   981.2    0.00 
 202   10:00   0.39   90.5    37   12.2    35    18.6   981.3    0.00 
 202   10:10   0.57   91.0    36   12.4    39    18.3   981.4    0.00 
 202   10:20   0.60   91.1    37   12.9    36    20.4   981.4    0.00 
 202   10:30   0.53   90.6    38   12.0    36    18.8   981.5    0.00 
 202   10:40   0.55   91.0    37    7.3    42    14.5   981.4    0.00 
 202   10:50   0.54   91.7    36    6.0    31    11.0   981.3    0.00 
 202   11:00   0.50   91.4    36    6.4    42    10.4   981.2    0.00 
 202   11:10   0.56   91.5    35    7.4    41    12.8   981.1    0.00 
 202   11:20   0.56   91.5    34    9.9    33    16.2   981.2    0.00 
 202   11:30   0.69   91.7    34    5.5    36    11.9   981.1    0.00 
 202   11:40   0.86   92.6    32    5.7    35    13.5   980.9    0.00 
 202   11:50   0.84   93.1    31    5.8    32    12.6   980.9    0.00 
 202   12:00   0.72   94.0    30    5.6    56    11.0   980.8    0.00 
 202   12:10   0.59   93.3    30    5.5    34    11.0   980.7    0.00 
 202   12:20   0.38   93.6    30    4.7    23     8.6   980.6    0.00 
 202   12:30   0.48   93.4    29    2.1   337     5.4   980.4    0.00 
 202   12:40   0.52   94.4    27    8.0    55    14.0   980.3    0.00 
 202   12:50   0.62   94.1    27    6.0    78    11.1   980.3    0.00 
 202   13:00   0.49   93.9    27    5.3    97    12.6   980.2    0.00 
 202   13:10   0.48   94.0    26    3.2    76     9.5   980.1    0.00 
 202   13:20   0.59   95.1    25    4.1    63     9.8   979.8    0.00 
 202   13:30   0.65   95.1    25    3.2    73     9.4   979.6    0.00 
 202   13:40   0.61   95.6    25    5.4    57    11.7   979.5    0.00 
 202   13:50   0.50   95.6    25    4.2    33     8.4   979.4    0.00 
 202   14:00   0.68   95.5    25    4.9    52    13.2   979.3    0.00 
 202   14:10   0.66   96.1    25    5.8    44    10.1   979.2    0.00 
 202   14:20   0.80   96.8    24    7.0    53    13.0   979.0    0.00 
 202   14:30   0.79   96.7    24    5.6    80    10.7   978.9    0.00 
 202   14:40   0.74   96.8    24    5.5    68    13.4   978.8    0.00 
 202   14:50   0.71   97.0    24    8.1    64    11.8   978.8    0.00 
 202   15:00   0.68   97.2    24    4.3    50     7.9   978.7    0.00 
 202   15:10   0.65   97.4    24    5.4    61    13.2   978.6    0.00 
 202   15:20   0.62   97.8    24    5.0    42    10.3   978.4    0.00 
 202   15:30   0.58   97.7    24    4.6    54    11.1   978.4    0.00 
 202   15:40   0.56   97.6    23    3.5    59    10.4   978.3    0.00 
 202   15:50   0.53   98.3    22    3.4   348     9.4   978.1    0.00 
 202   16:00   0.50   98.7    22    3.1    52     7.6   978.1    0.00 
 202   16:10   0.46   98.5    21    3.4    66    10.2   978.0    0.00 
 202   16:20   0.42   98.9    20    4.4    59    11.2   978.0    0.00 
 202   16:30   0.40   98.6    20    4.1    18     7.7   977.9    0.00 
 202   16:40   0.35   98.5    20    3.7    34     8.3   977.8    0.00 

Return to Boyd Deep Canyon Reserve graphs page.


Western Regional Climate Center,wrcc@dri.edu